Sao Pedro do Piaui, Brazil
Current Conditions -  °F | °C
As of 2:00 PM on Wednesday 26 Nov 2014 (Local Time) from SBTE Reporting Station
Scattered Clouds Scattered Clouds  
Wind Chill: 97°   Ceiling: Unl
Heat Index: 100°   Visibility: 6mi
Dew Point: 66°   Wind: 3mph
Humidity: 37%   Direction: 60°ENE
Pressure: 29.74"   Gusts: NA
Location:  5.93°S, 42.72°W
Report Text: SBTE 261700Z 06003KT 9999 SCT030 36/19 Q1007
Loading
Personal Weather Stations






























Interactive Weather Map New forecast layout! Learn more

10-Day Weather Forecast

Advertisements
Track Severe Weather on mobile